Time;durP1;ratioP1;P1;durP2;ratioP2;P2;SDS_P1;SDS_P2;PMS_P1;PMS_P2;Temp;Humidity;BMP_temperature;BMP_pressure;BME280_temperature;BME280_humidity;BME280_pressure;Samples;Min_cycle;Max_cycle;Signal;HPM_P1;HPM_P2
2021/03/29 00:02:12;;;;;;;79.47;45.60;;;6.70;70.60;;;;;;5013071;28;20026;-69
2021/03/29 00:04:38;;;;;;;86.28;47.35;;;6.60;70.80;;;;;;5012357;28;20026;-69
2021/03/29 00:07:05;;;;;;;89.25;50.42;;;6.60;71.00;;;;;;5028221;28;20029;-70
2021/03/29 00:09:32;;;;;;;84.60;51.33;;;6.60;71.20;;;;;;5028501;28;20026;-70
2021/03/29 00:12:04;;;;;;;83.03;48.42;;;6.60;71.30;;;;;;5013305;28;20034;-70
2021/03/29 00:14:31;;;;;;;96.55;55.13;;;6.70;71.50;;;;;;5026770;28;20121;-71
2021/03/29 00:16:57;;;;;;;89.72;53.05;;;6.70;71.40;;;;;;5032816;28;20026;-71
2021/03/29 00:19:26;;;;;;;84.70;49.90;;;6.70;71.40;;;;;;5034172;28;20090;-75
2021/03/29 00:21:52;;;;;;;88.57;51.92;;;6.70;71.50;;;;;;5047926;28;20033;-71
2021/03/29 00:24:19;;;;;;;82.65;47.25;;;6.70;71.50;;;;;;5020627;28;20029;-71
2021/03/29 00:26:45;;;;;;;97.13;54.13;;;6.70;71.50;;;;;;5012017;28;20022;-71
2021/03/29 00:29:11;;;;;;;77.90;44.00;;;6.70;71.60;;;;;;5028832;28;20117;-71
2021/03/29 00:31:37;;;;;;;80.22;45.40;;;6.70;71.70;;;;;;5027893;28;20088;-71
2021/03/29 00:34:04;;;;;;;80.53;44.90;;;6.70;71.70;;;;;;5024541;28;20030;-71
2021/03/29 00:36:31;;;;;;;76.32;44.92;;;6.70;71.80;;;;;;5012484;28;20103;-71
2021/03/29 00:38:57;;;;;;;85.25;48.47;;;6.80;71.80;;;;;;5041588;28;20045;-68
2021/03/29 00:41:24;;;;;;;78.07;44.47;;;6.80;71.90;;;;;;5025900;28;20102;-67
2021/03/29 00:43:50;;;;;;;81.03;44.95;;;6.70;71.80;;;;;;5031379;28;20388;-69
2021/03/29 00:46:18;;;;;;;83.30;47.20;;;6.70;71.90;;;;;;5031224;28;20388;-69
2021/03/29 00:48:46;;;;;;;70.70;41.22;;;6.70;72.10;;;;;;5024625;28;20148;-68
2021/03/29 00:51:21;;;;;;;76.88;44.47;;;6.70;72.10;;;;;;5027828;28;20034;-68
2021/03/29 00:53:50;;;;;;;75.03;42.78;;;6.70;72.10;;;;;;5022863;28;20038;-68
2021/03/29 00:56:16;;;;;;;72.75;39.90;;;6.70;72.10;;;;;;5015854;28;20495;-69
2021/03/29 00:58:44;;;;;;;71.00;40.05;;;6.70;72.30;;;;;;5023799;28;20180;-69
2021/03/29 01:01:23;;;;;;;81.82;46.95;;;6.70;72.30;;;;;;5031011;28;20064;-69
2021/03/29 01:03:51;;;;;;;87.93;48.17;;;6.70;72.30;;;;;;5025187;28;20115;-69
2021/03/29 01:06:19;;;;;;;74.15;42.63;;;6.70;72.40;;;;;;5024427;28;20041;-69
2021/03/29 01:08:49;;;;;;;80.50;43.25;;;6.60;72.50;;;;;;5027807;28;20028;-69
2021/03/29 01:11:17;;;;;;;88.93;47.85;;;6.60;72.70;;;;;;5027455;28;20484;-70
2021/03/29 01:13:46;;;;;;;84.47;46.97;;;6.60;72.80;;;;;;5028461;28;20477;-69
2021/03/29 01:16:14;;;;;;;82.28;44.25;;;6.60;72.80;;;;;;5026250;28;20026;-70
2021/03/29 01:18:43;;;;;;;76.68;43.47;;;6.70;73.00;;;;;;5024585;28;20407;-70
2021/03/29 01:21:35;;;;;;;89.07;49.75;;;6.60;72.90;;;;;;5035895;28;20048;-69
2021/03/29 01:24:08;;;;;;;116.90;61.88;;;6.60;73.00;;;;;;5032332;28;20065;-71
2021/03/29 01:26:39;;;;;;;112.20;61.58;;;6.60;73.30;;;;;;5013030;28;20424;-71
2021/03/29 01:29:06;;;;;;;105.70;58.72;;;6.60;73.50;;;;;;5025515;28;20030;-70
2021/03/29 01:31:32;;;;;;;124.85;72.78;;;6.50;73.80;;;;;;5013924;28;20113;-71
2021/03/29 01:33:58;;;;;;;125.78;76.88;;;6.50;74.00;;;;;;5013451;28;20053;-71
2021/03/29 01:36:25;;;;;;;138.40;86.63;;;6.50;74.20;;;;;;5030317;28;20443;-71
2021/03/29 01:38:52;;;;;;;126.78;79.80;;;6.50;74.40;;;;;;5015077;28;20025;-70
2021/03/29 01:41:19;;;;;;;121.15;67.15;;;6.40;74.70;;;;;;5016137;28;20125;-69
2021/03/29 01:43:47;;;;;;;111.85;60.92;;;6.30;75.00;;;;;;5016213;28;20392;-70
2021/03/29 01:46:14;;;;;;;99.38;55.92;;;6.30;75.30;;;;;;5031262;28;20065;-69
2021/03/29 01:48:42;;;;;;;105.15;56.80;;;6.20;75.60;;;;;;5020204;28;20453;-69
2021/03/29 01:51:09;;;;;;;117.65;70.05;;;6.20;76.00;;;;;;5035440;28;20030;-70
2021/03/29 01:53:36;;;;;;;121.50;68.50;;;6.20;76.30;;;;;;5017944;28;20404;-70
2021/03/29 01:56:02;;;;;;;123.10;66.60;;;6.20;76.60;;;;;;5030800;28;20041;-70
2021/03/29 01:58:29;;;;;;;123.30;66.55;;;6.20;76.90;;;;;;5015696;28;20095;-69
2021/03/29 02:01:01;;;;;;;113.60;61.95;;;6.10;77.60;;;;;;5030960;28;20388;-72
2021/03/29 02:03:28;;;;;;;117.25;62.00;;;6.10;77.20;;;;;;5015691;28;20026;-69
2021/03/29 02:05:55;;;;;;;135.15;67.55;;;6.10;77.30;;;;;;5043563;28;20018;-69
2021/03/29 02:08:22;;;;;;;123.20;64.97;;;6.10;77.60;;;;;;5015830;28;20032;-69
2021/03/29 02:10:49;;;;;;;131.23;65.45;;;6.10;77.80;;;;;;5013924;28;20033;-69
2021/03/29 02:13:21;;;;;;;119.80;64.95;;;6.00;77.80;;;;;;5015322;28;20429;-70
2021/03/29 02:15:54;;;;;;;134.73;73.10;;;6.00;77.90;;;;;;5016021;28;20133;-69
2021/03/29 02:18:25;;;;;;;137.90;72.03;;;6.00;78.30;;;;;;5035502;28;20040;-69
2021/03/29 02:20:53;;;;;;;113.25;61.72;;;6.00;78.50;;;;;;5035153;28;20037;-70
2021/03/29 02:23:19;;;;;;;89.63;51.88;;;6.00;78.60;;;;;;5035130;28;20025;-69
2021/03/29 02:25:47;;;;;;;87.22;50.40;;;6.10;78.70;;;;;;5035555;28;20037;-69
2021/03/29 02:28:14;;;;;;;89.90;49.47;;;6.10;78.50;;;;;;5033459;28;20459;-70
2021/03/29 02:30:41;;;;;;;87.00;49.33;;;6.10;78.50;;;;;;5050568;28;20491;-70
2021/03/29 02:33:10;;;;;;;84.38;47.90;;;6.10;78.50;;;;;;5034615;28;20026;-70
2021/03/29 02:35:36;;;;;;;78.03;45.60;;;6.10;78.50;;;;;;5033678;28;20025;-70
2021/03/29 02:38:04;;;;;;;79.38;44.90;;;6.20;78.60;;;;;;5034783;28;20061;-70
2021/03/29 02:40:31;;;;;;;85.38;42.75;;;6.10;78.60;;;;;;5041892;28;20457;-70
2021/03/29 02:42:58;;;;;;;74.90;42.22;;;6.10;78.70;;;;;;5015301;28;20381;-71
2021/03/29 02:45:27;;;;;;;73.43;41.28;;;6.10;78.90;;;;;;5037162;28;20025;-70
2021/03/29 02:47:56;;;;;;;74.72;40.47;;;6.10;79.00;;;;;;5023540;28;20021;-71
2021/03/29 02:50:30;;;;;;;76.28;40.92;;;6.10;79.00;;;;;;5036205;28;20048;-71
2021/03/29 02:52:59;;;;;;;82.30;44.13;;;6.00;79.20;;;;;;5022394;28;20034;-72
2021/03/29 02:55:27;;;;;;;80.38;44.30;;;6.00;79.20;;;;;;5021684;28;20033;-69
2021/03/29 02:57:57;;;;;;;106.82;64.00;;;6.00;79.20;;;;;;5014726;28;20092;-69
2021/03/29 03:00:24;;;;;;;114.68;69.80;;;5.90;79.20;;;;;;5030124;28;20391;-69
2021/03/29 03:02:53;;;;;;;95.05;54.53;;;5.90;79.50;;;;;;5013183;28;20451;-69
2021/03/29 03:05:20;;;;;;;98.07;53.03;;;5.80;79.90;;;;;;5013848;28;20022;-69
2021/03/29 03:07:47;;;;;;;103.88;56.80;;;5.90;80.20;;;;;;5013077;28;20022;-70
2021/03/29 03:10:14;;;;;;;99.75;56.53;;;5.80;80.30;;;;;;5014341;28;20033;-71
2021/03/29 03:12:45;;;;;;;114.35;55.50;;;5.80;80.50;;;;;;5029843;28;20025;-71
2021/03/29 03:15:23;;;;;;;157.73;70.90;;;5.80;80.90;;;;;;5032495;28;20021;-71
2021/03/29 03:17:57;;;;;;;106.32;52.97;;;5.80;81.30;;;;;;5031924;28;20068;-71
2021/03/29 03:20:24;;;;;;;90.65;46.03;;;5.80;81.70;;;;;;5014153;28;20033;-69
2021/03/29 03:22:58;;;;;;;75.82;41.72;;;5.90;81.90;;;;;;5012768;28;20040;-69
2021/03/29 03:25:27;;;;;;;78.20;41.75;;;5.90;82.20;;;;;;5019502;28;20057;-70
2021/03/29 03:27:54;;;;;;;72.03;40.88;;;5.90;82.30;;;;;;5018813;28;20026;-70
2021/03/29 03:30:29;;;;;;;78.95;42.70;;;5.80;82.30;;;;;;5023952;28;20030;-70
2021/03/29 03:32:55;;;;;;;89.45;49.22;;;5.80;82.60;;;;;;5012445;28;20030;-76
2021/03/29 03:35:25;;;;;;;88.03;47.65;;;5.80;82.70;;;;;;5036988;28;20030;-69
2021/03/29 03:37:55;;;;;;;89.38;48.85;;;5.80;82.90;;;;;;5019113;28;20034;-70
2021/03/29 03:40:23;;;;;;;113.82;54.92;;;5.80;83.50;;;;;;5012708;28;20044;-70
2021/03/29 03:42:50;;;;;;;110.20;55.22;;;5.90;83.00;;;;;;5028929;28;20029;-70
2021/03/29 03:45:19;;;;;;;110.93;52.20;;;5.90;83.20;;;;;;5013560;28;20053;-70
2021/03/29 03:47:46;;;;;;;103.53;57.92;;;5.90;83.20;;;;;;5013941;28;20460;-70
2021/03/29 03:50:13;;;;;;;103.93;57.00;;;6.00;83.30;;;;;;5012236;28;20040;-71
2021/03/29 03:52:41;;;;;;;75.70;44.20;;;6.00;83.30;;;;;;5013861;28;20488;-71
2021/03/29 03:55:09;;;;;;;62.80;37.58;;;6.00;83.30;;;;;;5043368;28;20032;-72
2021/03/29 03:57:36;;;;;;;63.35;36.08;;;6.10;83.40;;;;;;5029046;28;20083;-73
2021/03/29 04:00:09;;;;;;;59.28;35.22;;;6.20;83.40;;;;;;5030422;28;20031;-72
2021/03/29 04:02:35;;;;;;;62.50;37.00;;;6.30;83.40;;;;;;5030220;28;20029;-72
2021/03/29 04:05:03;;;;;;;59.53;35.10;;;6.40;83.60;;;;;;5044918;28;20083;-76
2021/03/29 04:07:29;;;;;;;65.32;36.17;;;6.50;83.50;;;;;;5031616;28;20035;-72
2021/03/29 04:10:00;;;;;;;58.78;35.05;;;6.70;83.40;;;;;;5027773;28;20372;-72
2021/03/29 04:12:26;;;;;;;56.67;31.90;;;6.80;83.10;;;;;;5027159;28;20029;-72
2021/03/29 04:14:51;;;;;;;53.63;29.55;;;7.00;83.00;;;;;;5036730;28;20087;-72
2021/03/29 04:17:17;;;;;;;47.15;25.10;;;7.10;82.80;;;;;;5020751;28;20026;-71
2021/03/29 04:19:43;;;;;;;45.88;26.77;;;7.30;82.50;;;;;;5021607;28;20018;-73
2021/03/29 04:22:09;;;;;;;47.00;27.85;;;7.50;81.90;;;;;;5026854;28;20038;-73
2021/03/29 04:24:34;;;;;;;64.03;32.90;;;7.70;81.40;;;;;;5033199;28;20371;-72
2021/03/29 04:27:00;;;;;;;63.30;33.10;;;8.00;81.00;;;;;;5037075;28;20091;-73
2021/03/29 04:29:26;;;;;;;79.13;40.10;;;8.20;80.40;;;;;;5029500;28;20025;-71
2021/03/29 04:31:53;;;;;;;64.55;35.92;;;8.40;79.80;;;;;;5033174;28;20040;-71
2021/03/29 04:34:19;;;;;;;40.97;23.95;;;8.60;79.10;;;;;;5038837;28;20032;-72
2021/03/29 04:36:44;;;;;;;36.15;20.98;;;8.80;78.30;;;;;;5030609;28;20116;-71
2021/03/29 04:39:10;;;;;;;37.53;22.60;;;9.10;77.40;;;;;;5025178;28;20065;-72
2021/03/29 04:41:36;;;;;;;40.97;25.08;;;9.30;76.90;;;;;;5025565;28;20033;-72
2021/03/29 04:44:02;;;;;;;49.28;30.88;;;9.50;76.00;;;;;;5027899;28;20420;-72
2021/03/29 04:46:27;;;;;;;42.65;27.08;;;9.80;75.40;;;;;;5027374;28;20033;-72
2021/03/29 04:48:53;;;;;;;37.65;23.08;;;10.10;74.60;;;;;;5025510;28;20113;-79
2021/03/29 04:51:19;;;;;;;36.10;22.17;;;10.30;73.60;;;;;;5026124;28;20049;-73
2021/03/29 04:53:45;;;;;;;39.75;24.45;;;10.50;73.40;;;;;;5022968;28;20033;-72
2021/03/29 04:56:10;;;;;;;42.92;28.27;;;10.70;71.50;;;;;;5024303;28;20036;-73
2021/03/29 04:58:36;;;;;;;41.50;27.65;;;10.90;70.70;;;;;;5038405;28;20029;-72
2021/03/29 05:01:02;;;;;;;43.10;24.85;;;11.00;70.00;;;;;;5019879;28;20523;-72
2021/03/29 05:03:28;;;;;;;40.92;24.98;;;11.20;69.50;;;;;;5022961;28;20029;-74
2021/03/29 05:05:54;;;;;;;40.85;23.42;;;11.40;69.00;;;;;;5030830;28;20100;-72
2021/03/29 05:08:19;;;;;;;40.55;23.70;;;11.60;68.10;;;;;;5019797;28;20473;-71
2021/03/29 05:10:45;;;;;;;43.33;25.98;;;11.70;67.30;;;;;;5032022;28;20041;-74
2021/03/29 05:13:10;;;;;;;46.90;27.60;;;11.90;66.40;;;;;;5028276;28;20486;-73
2021/03/29 05:15:36;;;;;;;51.28;29.23;;;12.10;65.70;;;;;;5046687;28;20144;-73
2021/03/29 05:18:02;;;;;;;52.10;28.70;;;12.30;65.40;;;;;;5024173;28;20099;-71
2021/03/29 05:20:28;;;;;;;53.50;30.70;;;12.60;64.70;;;;;;5035884;28;20036;-70
2021/03/29 05:22:53;;;;;;;42.13;26.25;;;12.80;64.40;;;;;;5034059;28;20028;-76
2021/03/29 05:25:19;;;;;;;37.72;23.00;;;13.10;62.90;;;;;;5032354;28;20108;-70
2021/03/29 05:27:45;;;;;;;34.72;20.30;;;13.20;62.00;;;;;;5047210;28;20032;-72
2021/03/29 05:30:11;;;;;;;29.98;19.42;;;13.40;61.50;;;;;;5024068;28;20029;-70
2021/03/29 05:32:37;;;;;;;32.20;18.90;;;13.60;60.60;;;;;;5030749;28;20156;-69
2021/03/29 05:35:03;;;;;;;30.02;20.05;;;13.70;59.80;;;;;;5028097;28;20599;-82
2021/03/29 05:37:29;;;;;;;35.38;21.67;;;13.80;58.90;;;;;;5046739;28;20033;-70
2021/03/29 05:39:57;;;;;;;33.95;22.27;;;13.90;58.60;;;;;;5028446;28;20452;-70
2021/03/29 05:42:25;;;;;;;31.58;21.20;;;14.10;58.00;;;;;;5025423;28;20034;-69
2021/03/29 05:44:53;;;;;;;29.75;20.45;;;14.40;57.50;;;;;;5032422;28;20038;-75
2021/03/29 05:47:19;;;;;;;30.25;20.95;;;14.60;56.80;;;;;;5025702;28;20030;-70
2021/03/29 05:49:45;;;;;;;32.05;20.50;;;14.70;56.10;;;;;;5026950;28;20507;-70
2021/03/29 05:52:11;;;;;;;31.23;19.52;;;14.80;55.80;;;;;;5036499;28;20404;-69
2021/03/29 05:54:38;;;;;;;31.08;19.88;;;15.00;55.10;;;;;;5018403;28;20365;-71
2021/03/29 05:57:05;;;;;;;34.38;21.20;;;15.20;54.20;;;;;;5037569;28;20140;-67
2021/03/29 05:59:40;;;;;;;30.45;19.92;;;15.20;53.80;;;;;;5021758;28;20088;-72
2021/03/29 06:02:07;;;;;;;35.33;20.92;;;15.30;53.30;;;;;;5018667;28;20062;-69
2021/03/29 06:04:43;;;;;;;28.42;19.80;;;15.50;52.90;;;;;;5020979;28;20025;-70
2021/03/29 06:07:19;;;;;;;30.75;20.02;;;15.50;52.00;;;;;;5022875;28;21092;-69
2021/03/29 06:09:47;;;;;;;32.63;19.13;;;15.60;51.50;;;;;;5032952;28;20033;-69
2021/03/29 06:12:14;;;;;;;31.40;19.85;;;15.70;51.20;;;;;;5031686;28;20495;-69
2021/03/29 06:14:41;;;;;;;32.28;21.08;;;15.70;50.80;;;;;;5024326;28;20472;-69
2021/03/29 06:17:08;;;;;;;30.73;19.80;;;15.70;50.60;;;;;;5034051;28;20026;-69
2021/03/29 06:19:40;;;;;;;32.25;21.45;;;15.60;50.40;;;;;;5019389;28;20050;-70
2021/03/29 06:22:08;;;;;;;32.20;21.48;;;15.60;50.50;;;;;;5019120;28;20469;-70
2021/03/29 06:25:01;;;;;;;32.17;21.30;;;15.80;50.60;;;;;;5029943;28;20026;-71
2021/03/29 06:27:33;;;;;;;30.00;18.25;;;16.10;50.40;;;;;;5015527;28;20487;-69
2021/03/29 06:30:18;;;;;;;27.85;19.08;;;16.20;49.90;;;;;;5026686;28;20026;-70
2021/03/29 06:33:12;;;;;;;29.30;19.27;;;16.40;49.40;;;;;;5032213;28;20037;-70
2021/03/29 06:35:52;;;;;;;27.20;18.98;;;16.60;49.30;;;;;;5015038;28;20034;-68
2021/03/29 06:38:28;;;;;;;30.73;20.00;;;17.10;48.70;;;;;;5019022;28;20495;-69
2021/03/29 06:41:02;;;;;;;28.38;20.73;;;17.40;48.00;;;;;;5013809;28;20026;-72
2021/03/29 06:43:44;;;;;;;30.87;20.30;;;17.60;47.40;;;;;;5029756;28;20025;-68
2021/03/29 06:46:18;;;;;;;35.58;20.70;;;17.90;46.80;;;;;;5031915;28;20083;-68
2021/03/29 06:48:44;;;;;;;32.28;19.98;;;18.20;45.80;;;;;;5016202;28;20461;-67
2021/03/29 06:51:11;;;;;;;27.17;19.67;;;18.40;45.50;;;;;;5015631;28;20038;-70
2021/03/29 06:53:39;;;;;;;27.02;18.60;;;18.60;45.00;;;;;;5016784;28;20045;-72
2021/03/29 06:56:32;;;;;;;27.08;18.35;;;18.70;44.20;;;;;;5023304;28;20030;-70
2021/03/29 06:59:15;;;;;;;26.80;18.17;;;18.90;43.90;;;;;;5031193;28;20033;-71
2021/03/29 07:01:55;;;;;;;25.35;18.52;;;19.10;43.50;;;;;;5029212;28;20060;-71
2021/03/29 07:04:25;;;;;;;27.73;19.30;;;19.30;42.80;;;;;;5028748;28;20017;-71
2021/03/29 07:06:52;;;;;;;31.85;20.02;;;19.40;42.60;;;;;;5025255;28;20030;-71
2021/03/29 07:09:18;;;;;;;30.30;20.00;;;19.40;42.30;;;;;;5031579;28;20108;-71
2021/03/29 07:11:46;;;;;;;28.58;20.35;;;19.60;41.90;;;;;;5021841;28;20026;-71
2021/03/29 07:14:13;;;;;;;29.98;19.95;;;19.80;41.70;;;;;;5015840;28;20034;-72
2021/03/29 07:16:40;;;;;;;26.30;19.15;;;20.20;41.30;;;;;;5031852;28;20125;-72
2021/03/29 07:19:08;;;;;;;26.02;18.70;;;20.30;40.90;;;;;;5026709;28;20014;-74
2021/03/29 07:21:36;;;;;;;26.65;20.13;;;20.40;40.50;;;;;;5034332;28;20502;-68
2021/03/29 07:24:13;;;;;;;29.50;19.98;;;20.30;40.20;;;;;;5015831;28;20034;-73
2021/03/29 07:26:52;;;;;;;30.88;19.73;;;20.30;39.80;;;;;;5025552;28;20026;-69
2021/03/29 07:29:18;;;;;;;31.05;19.80;;;20.40;39.80;;;;;;5015956;28;20018;-70
2021/03/29 07:31:46;;;;;;;31.98;22.33;;;20.70;39.60;;;;;;5016579;28;20495;-69
2021/03/29 07:34:12;;;;;;;30.88;22.80;;;20.90;39.30;;;;;;5025931;28;20122;-69
2021/03/29 07:36:45;;;;;;;33.42;22.05;;;21.00;38.70;;;;;;5025459;28;20509;-69
2021/03/29 07:39:13;;;;;;;29.10;21.75;;;21.10;38.30;;;;;;5027269;28;20022;-69
2021/03/29 07:41:39;;;;;;;31.33;24.65;;;21.30;38.30;;;;;;5025236;28;20029;-69
2021/03/29 07:44:10;;;;;;;41.83;28.63;;;21.40;38.00;;;;;;5025249;28;20033;-69
2021/03/29 07:46:41;;;;;;;32.25;25.33;;;21.50;37.90;;;;;;5022097;28;20376;-69
2021/03/29 07:49:41;;;;;;;29.80;21.25;;;21.80;37.60;;;;;;5022289;28;20494;-68
2021/03/29 07:52:35;;;;;;;32.58;19.85;;;22.00;37.30;;;;;;5031661;28;20026;-68
2021/03/29 07:55:04;;;;;;;32.35;23.27;;;22.00;37.00;;;;;;5029735;28;20384;-70
2021/03/29 07:57:44;;;;;;;35.95;26.88;;;22.10;36.70;;;;;;5026283;28;20180;-69
2021/03/29 08:00:25;;;;;;;32.25;21.08;;;22.10;36.30;;;;;;5028110;28;20029;-69
2021/03/29 08:02:52;;;;;;;29.60;19.65;;;22.20;36.40;;;;;;5023613;28;20104;-69
2021/03/29 08:05:42;;;;;;;28.90;21.33;;;22.30;36.60;;;;;;5019563;28;20102;-69
2021/03/29 08:08:33;;;;;;;30.10;21.58;;;22.40;36.20;;;;;;5022738;28;20025;-69
2021/03/29 08:11:17;;;;;;;34.67;25.17;;;22.40;36.10;;;;;;5012866;28;20072;-69
2021/03/29 08:13:53;;;;;;;38.10;28.52;;;22.70;36.00;;;;;;5028254;28;20036;-69
2021/03/29 08:16:25;;;;;;;57.75;44.13;;;22.80;35.50;;;;;;5018268;28;20025;-69
2021/03/29 08:19:20;;;;;;;39.78;30.73;;;22.80;35.40;;;;;;5032789;28;20041;-69
2021/03/29 08:22:03;;;;;;;40.38;32.20;;;22.90;35.50;;;;;;5036317;28;20225;-69
2021/03/29 08:24:43;;;;;;;42.33;29.25;;;22.90;35.50;;;;;;5031030;28;20029;-69
2021/03/29 08:27:30;;;;;;;36.05;22.83;;;23.10;35.50;;;;;;5032360;28;20479;-69
2021/03/29 08:30:10;;;;;;;37.90;22.95;;;23.10;35.20;;;;;;5031377;28;20082;-68
2021/03/29 08:32:40;;;;;;;31.63;21.50;;;23.20;35.10;;;;;;5033340;28;20065;-69
2021/03/29 08:35:11;;;;;;;27.83;19.02;;;23.40;35.00;;;;;;5030734;28;20120;-68
2021/03/29 08:37:51;;;;;;;24.35;20.00;;;23.60;34.90;;;;;;5022678;28;20030;-68
2021/03/29 08:40:23;;;;;;;28.98;20.90;;;23.80;34.40;;;;;;5026353;28;20029;-69
2021/03/29 08:42:51;;;;;;;32.60;21.67;;;24.10;34.50;;;;;;5039267;28;20025;-68
2021/03/29 08:45:27;;;;;;;29.92;20.42;;;24.40;34.00;;;;;;5056622;28;20140;-68
2021/03/29 08:47:59;;;;;;;34.53;23.20;;;24.70;33.60;;;;;;5035527;28;20538;-76
2021/03/29 08:50:26;;;;;;;37.55;23.00;;;24.90;33.20;;;;;;5036196;28;20115;-69
2021/03/29 08:53:05;;;;;;;34.67;22.40;;;25.10;33.30;;;;;;5024562;28;20037;-69
2021/03/29 08:55:33;;;;;;;26.50;18.80;;;25.00;33.10;;;;;;5032135;28;20049;-69
2021/03/29 08:57:59;;;;;;;25.17;18.80;;;25.10;32.90;;;;;;5027778;28;20042;-69
2021/03/29 09:00:43;;;;;;;26.45;19.20;;;25.30;32.80;;;;;;5035919;28;20026;-69
2021/03/29 09:03:20;;;;;;;27.70;19.40;;;25.30;32.50;;;;;;5032024;28;20108;-69
2021/03/29 09:05:46;;;;;;;27.70;19.77;;;25.30;32.50;;;;;;5026339;28;20156;-69
2021/03/29 09:08:12;;;;;;;39.22;24.00;;;25.30;32.50;;;;;;5030334;28;20053;-69
2021/03/29 09:10:38;;;;;;;43.17;27.67;;;25.40;32.60;;;;;;5021536;28;20484;-69
2021/03/29 09:13:09;;;;;;;36.10;25.58;;;25.50;32.40;;;;;;5016098;28;20030;-69
2021/03/29 09:15:37;;;;;;;37.55;27.02;;;25.60;32.50;;;;;;5031492;28;20041;-69
2021/03/29 09:18:08;;;;;;;35.10;28.02;;;25.70;32.20;;;;;;5016003;28;20054;-69
2021/03/29 09:20:37;;;;;;;34.22;26.02;;;25.70;32.10;;;;;;5016206;28;20030;-70
2021/03/29 09:23:04;;;;;;;31.05;24.65;;;25.80;32.00;;;;;;5014445;28;20022;-69
2021/03/29 09:25:33;;;;;;;34.58;23.58;;;25.90;32.00;;;;;;5023792;28;20045;-69
2021/03/29 09:28:33;;;;;;;36.00;21.67;;;25.90;31.90;;;;;;5015505;28;20022;-68
2021/03/29 09:31:23;;;;;;;40.80;26.67;;;25.80;31.80;;;;;;5015559;28;20030;-69
2021/03/29 09:33:51;;;;;;;53.90;34.40;;;25.90;31.90;;;;;;5040169;28;20040;-68
2021/03/29 09:36:25;;;;;;;47.25;34.47;;;25.80;31.80;;;;;;5019938;28;20101;-68
2021/03/29 09:38:54;;;;;;;33.13;21.63;;;25.90;31.60;;;;;;5014517;28;20112;-68
2021/03/29 09:41:20;;;;;;;26.60;17.58;;;26.00;32.00;;;;;;5029528;28;20026;-68
2021/03/29 09:43:48;;;;;;;23.95;17.60;;;25.90;31.50;;;;;;5023051;28;20429;-68
2021/03/29 09:46:15;;;;;;;25.52;17.23;;;26.00;31.20;;;;;;5035507;28;20025;-68
2021/03/29 09:48:41;;;;;;;28.45;18.25;;;26.30;31.10;;;;;;5035371;28;20021;-68
2021/03/29 09:51:39;;;;;;;26.73;18.58;;;26.30;31.00;;;;;;5034910;28;20456;-68
2021/03/29 09:54:35;;;;;;;28.08;21.85;;;26.30;31.10;;;;;;5022537;28;20051;-68
2021/03/29 09:57:16;;;;;;;;;;;26.50;30.80;;;;;;5035540;28;20056;-68
2021/03/29 09:59:44;;;;;;;22.90;14.98;;;26.30;31.20;;;;;;5033761;28;19909;-68
2021/03/29 10:02:13;;;;;;;33.38;20.70;;;26.30;30.90;;;;;;5035580;28;20102;-68
2021/03/29 10:04:40;;;;;;;27.70;17.55;;;26.10;31.30;;;;;;5034306;28;20352;-67
2021/03/29 10:07:16;;;;;;;27.80;17.52;;;26.10;31.10;;;;;;5051166;28;20408;-75
2021/03/29 10:09:46;;;;;;;28.95;22.67;;;26.30;30.80;;;;;;5018383;28;20092;-68
2021/03/29 10:12:25;;;;;;;32.95;19.88;;;26.30;31.00;;;;;;5023805;28;20029;-67
2021/03/29 10:15:11;;;;;;;31.73;20.50;;;26.00;30.30;;;;;;5031924;28;20021;-68
2021/03/29 10:17:37;;;;;;;18.45;12.35;;;25.70;30.80;;;;;;5014981;28;20033;-68
2021/03/29 10:20:06;;;;;;;18.52;13.25;;;25.80;30.30;;;;;;5013889;28;20096;-68
2021/03/29 10:22:32;;;;;;;19.58;13.85;;;25.60;30.00;;;;;;5014552;28;20188;-68
2021/03/29 10:25:17;;;;;;;19.00;13.77;;;25.30;30.20;;;;;;5013536;28;20141;-68
2021/03/29 10:27:52;;;;;;;18.52;14.27;;;24.80;30.10;;;;;;5015279;28;20026;-68
2021/03/29 10:30:18;;;;;;;19.42;13.65;;;24.60;30.50;;;;;;5014699;28;20026;-69
2021/03/29 10:32:44;;;;;;;23.42;13.73;;;24.40;30.60;;;;;;5028673;28;20028;-70
2021/03/29 10:35:10;;;;;;;23.63;13.65;;;24.30;30.60;;;;;;5030719;28;20030;-69
2021/03/29 10:37:36;;;;;;;23.67;14.18;;;23.90;30.80;;;;;;5032162;28;20379;-69
2021/03/29 10:40:03;;;;;;;17.77;11.38;;;23.60;31.40;;;;;;5032350;28;20097;-69
2021/03/29 10:42:32;;;;;;;20.88;12.35;;;23.30;31.30;;;;;;5023738;28;20060;-68
2021/03/29 10:44:58;;;;;;;19.92;12.73;;;23.10;31.80;;;;;;5021163;28;20030;-69
2021/03/29 10:47:24;;;;;;;20.25;12.15;;;22.90;32.10;;;;;;5031248;28;20032;-70
2021/03/29 10:49:51;;;;;;;25.83;11.15;;;22.90;32.30;;;;;;5044921;28;20105;-69
2021/03/29 10:52:17;;;;;;;24.20;12.27;;;23.00;32.20;;;;;;5031269;28;20033;-69
2021/03/29 10:54:44;;;;;;;19.00;10.63;;;23.10;32.20;;;;;;5030797;28;20022;-69
2021/03/29 10:57:09;;;;;;;18.70;11.00;;;23.20;32.20;;;;;;5032149;28;20053;-68
2021/03/29 10:59:35;;;;;;;16.25;10.38;;;23.20;32.30;;;;;;5030822;28;20429;-68
2021/03/29 11:02:01;;;;;;;19.13;11.52;;;23.30;31.90;;;;;;5031353;28;20025;-69
2021/03/29 11:04:27;;;;;;;18.45;10.00;;;23.40;31.90;;;;;;5032151;28;20080;-70
2021/03/29 11:06:53;;;;;;;18.58;10.40;;;23.50;32.20;;;;;;5032870;28;20095;-69
2021/03/29 11:09:20;;;;;;;18.00;11.05;;;23.70;31.70;;;;;;5032647;28;20025;-70
2021/03/29 11:11:46;;;;;;;14.30;8.63;;;23.60;31.30;;;;;;5047052;28;20030;-69
2021/03/29 11:14:12;;;;;;;18.90;10.10;;;23.50;31.00;;;;;;5027494;28;20068;-68
2021/03/29 11:16:38;;;;;;;18.13;10.68;;;23.20;31.00;;;;;;5037205;28;20049;-68
2021/03/29 11:19:04;;;;;;;15.43;9.73;;;22.90;31.40;;;;;;5030742;28;20097;-68
2021/03/29 11:21:30;;;;;;;17.73;10.23;;;22.90;31.50;;;;;;5026567;28;20022;-68
2021/03/29 11:23:56;;;;;;;15.05;10.23;;;23.00;31.60;;;;;;5032521;28;20036;-69
2021/03/29 11:26:22;;;;;;;13.27;9.65;;;23.00;30.80;;;;;;5019346;28;20041;-68
2021/03/29 11:28:48;;;;;;;12.73;9.43;;;23.00;30.50;;;;;;5024671;28;20030;-68
2021/03/29 11:31:14;;;;;;;14.35;8.93;;;22.90;30.50;;;;;;5047085;28;20056;-68
2021/03/29 11:33:40;;;;;;;14.95;8.07;;;22.80;30.20;;;;;;5038423;28;20013;-67
2021/03/29 11:36:06;;;;;;;18.50;9.02;;;22.70;30.40;;;;;;5036547;28;20277;-68
2021/03/29 11:38:31;;;;;;;20.00;8.85;;;22.80;30.50;;;;;;5036060;28;20026;-68
2021/03/29 11:40:57;;;;;;;15.13;7.88;;;22.60;30.70;;;;;;5025057;28;20053;-68
2021/03/29 11:43:23;;;;;;;15.10;8.68;;;22.70;30.70;;;;;;5022126;28;20030;-68
2021/03/29 11:45:49;;;;;;;18.30;8.60;;;22.80;30.60;;;;;;5026702;28;20495;-68
2021/03/29 11:48:14;;;;;;;12.63;7.90;;;22.90;30.50;;;;;;5044287;28;20116;-69
2021/03/29 11:50:40;;;;;;;14.52;8.52;;;22.80;30.50;;;;;;5022101;28;20026;-69
2021/03/29 11:53:06;;;;;;;12.48;6.97;;;22.90;30.40;;;;;;5028081;28;20029;-69
2021/03/29 11:55:32;;;;;;;14.95;8.30;;;22.90;29.70;;;;;;5030650;28;20033;-69
2021/03/29 11:57:58;;;;;;;26.48;18.52;;;22.70;29.80;;;;;;5031497;28;20048;-69
2021/03/29 12:00:32;;;;;;;18.88;14.60;;;22.50;30.20;;;;;;5031424;28;20104;-70
2021/03/29 12:05:37;;;;;;;10.77;7.57;;;22.20;30.10;;;;;;5030803;28;20108;-70
2021/03/29 12:08:12;;;;;;;11.43;7.28;;;21.80;30.00;;;;;;5024753;28;20449;-68
2021/03/29 12:13:22;;;;;;;13.55;9.60;;;20.80;30.70;;;;;;5013089;28;20099;-69
2021/03/29 12:15:52;;;;;;;17.52;8.85;;;20.40;31.00;;;;;;5013253;28;20416;-68
2021/03/29 12:21:03;;;;;;;17.23;10.40;;;19.50;31.80;;;;;;5013071;28;20060;-69
2021/03/29 12:23:30;;;;;;;16.42;10.35;;;19.20;32.00;;;;;;5011803;28;20033;-70
2021/03/29 12:25:58;;;;;;;19.42;12.40;;;19.00;32.20;;;;;;5012997;28;20473;-69
2021/03/29 12:28:28;;;;;;;17.38;11.73;;;18.80;32.20;;;;;;5028811;28;20022;-68
2021/03/29 12:30:55;;;;;;;27.77;13.55;;;18.60;32.60;;;;;;5012995;28;20060;-75
2021/03/29 12:33:22;;;;;;;19.10;14.98;;;18.50;32.80;;;;;;5027697;28;20033;-70
2021/03/29 12:35:48;;;;;;;22.85;15.68;;;18.50;32.50;;;;;;5024961;28;20475;-70
2021/03/29 12:38:14;;;;;;;37.08;24.13;;;18.30;32.70;;;;;;5032767;28;20027;-69
2021/03/29 12:40:44;;;;;;;26.40;19.95;;;18.20;33.00;;;;;;5031736;28;20064;-69
2021/03/29 12:43:14;;;;;;;13.93;9.80;;;18.10;32.60;;;;;;5031424;28;20071;-69
2021/03/29 12:45:42;;;;;;;13.20;8.70;;;17.90;32.70;;;;;;5048191;28;20032;-70
2021/03/29 12:48:09;;;;;;;20.33;17.90;;;17.70;32.80;;;;;;5048455;28;20486;-69
2021/03/29 12:50:36;;;;;;;21.50;14.68;;;17.50;32.70;;;;;;5048210;28;20029;-69
2021/03/29 12:53:03;;;;;;;15.38;11.18;;;17.30;32.60;;;;;;5032921;28;20048;-69